Terminal Aerodrome Forecast
Issued by NWS

Home | Current Version | Previous Version | Text Only | Print | Product List | Glossary On
Versions: 1 2 3 4 5 6 7 8 9 10 11 12 13 14 15 16 17 18 19 20 21 22 23 24 25 26
000
FTUS43 KMKX 251502 AAA
TAFENW
TAF AMD
KENW 251502Z 2515/2612 27008KT P6SM FEW035
     FM251700 28013G19KT P6SM BKN040
     FM260200 28009KT P6SM SCT100=

USA.gov is the U.S. government's official web portal to all federal, state and local government web resources and services.